• Join FlightAware (Why Join?)
  • Login
  • US Flag 
 
10:42PM EST


 

Airport Tracker/Info


-or-


 

Live Flight TrackerFlight Track Log ✈ N726AG ✈ 19-Jun-2013 ✈ KFDK - KBTV

Flight Track Log - Related Links

Times and Time Zones

All times are in EDT time to prevent confusion due to time zone crossing. See the N726AG flight status page for this flight to view local times or setup timezone preferences in your user account.

Time Position Orientation Groundspeed Altitude Reporting Facility
EDT Latitude Longitude Course Direction KTS MPH feet Rate Location/Type
04:30PM 39.4500 -77.2500 30° Northeast 210 242 3,100  Level Potomac TRACON
04:31PM 39.4667 -77.1667 75° East 227 261 5,300 2,760 Climbing Potomac TRACON
04:32PM 39.4667 -77.0667 90° East 240 276 8,900 2,760 Climbing Potomac TRACON
04:33PM 39.4833 -76.9833 75° East 287 330 10,900 1,020 Climbing Potomac TRACON
04:34PM 39.4833 -76.8833 90° East 327 376 10,900  Level Potomac TRACON
04:35PM 40.4198 -76.5983 30° Northeast  Level Estimated
04:35PM 39.4667 -76.7500 99° East 334 384 10,900  Level Potomac TRACON
04:36PM 39.4167 -76.6667 128° Southeast 337 388 10,900  Level Potomac TRACON
04:37PM 39.3500 -76.5833 136° Southeast 340 391 11,000  Climbing Potomac TRACON
04:38PM 39.3000 -76.4833 123° Southeast 325 374 10,900 -60 Descending Potomac TRACON
04:39PM 39.2167 -76.4167 148° Southeast 301 346 10,900  Level Potomac TRACON
04:40PM 39.0922 -76.3697 164° South 329 379 10,900 360 Level Washington Center
04:41PM 39.0908 -76.2603 91° East 255 293 12,000 1,200 Climbing Washington Center
04:42PM 39.1267 -76.1428 69° East 267 307 13,300 1,440 Climbing Washington Center
04:43PM 39.1564 -76.0253 72° East 304 350 15,000 1,740 Climbing Washington Center
04:44PM 39.1839 -75.9050 74° East 321 369 16,900 1,740 Climbing Washington Center
04:45PM 39.2467 -75.8086 50° Northeast 343 395 18,500 1,560 Climbing Washington Center
04:46PM 39.3156 -75.7203 45° Northeast 343 395 20,000 1,440 Climbing Washington Center
04:47PM 39.3886 -75.6264 45° Northeast 350 403 21,500 1,440 Climbing Washington Center
04:48PM 39.4614 -75.5350 44° Northeast 355 409 22,900 1,320 Climbing Washington Center
04:49PM 39.5383 -75.4356 45° Northeast 366 421 24,100 1,380 Climbing Washington Center
04:50PM 39.6175 -75.3303 46° Northeast 384 442 25,700 1,800 Climbing Washington Center
04:51PM 39.6922 -75.2328 45° Northeast 384 442 27,800 2,100 Climbing Washington Center
04:52PM 39.7772 -75.1189 46° Northeast 386 444 30,000 1,500 Climbing Washington Center
04:55PM 39.9372 -74.8967 47° Northeast 417 480 32,600 1,260 Climbing New York Center
04:56PM 40.0250 -74.7664 49° Northeast 434 499 34,000 1,140 Climbing New York Center
04:57PM 40.1064 -74.6408 50° Northeast 439 505 35,000 480 Climbing New York Center
04:58PM 40.1983 -74.5075 48° Northeast 470 541 35,000  Level New York Center
04:59PM 40.2864 -74.4169 38° Northeast 483 556 35,000  Level New York Center
05:00PM 40.4111 -74.3636 18° North 467 537 35,000  Level New York Center
05:01PM 40.5625 -74.3222 12° North 456 525 35,000  Level New York Center
05:02PM 40.6864 -74.2878 12° North 461 531 35,000  Level New York Center
05:04PM 40.9967 -74.2028 12° North 453 521 35,000  Level Boston Center
05:05PM 41.1200 -74.1678 12° North 448 516 35,000  Level Boston Center
05:06PM 41.2267 -74.1403 11° North 448 516 35,000  Level Boston Center
05:07PM 41.3586 -74.0967 14° North 443 510 35,000  Level Boston Center
05:08PM 41.4800 -74.0611 12° North 443 510 35,000  Level Boston Center
05:09PM 41.5908 -74.0333 11° North 443 510 35,000 -360 Level Boston Center
05:10PM 41.7122 -73.9975 12° North 443 510 34,300 -900 Descending Boston Center
05:11PM 41.8275 -73.9639 12° North 435 501 33,200 -660 Descending Boston Center
05:12PM 41.9467 -73.9306 12° North 429 494 33,000 -120 Descending Boston Center
05:13PM 42.0681 -73.8972 12° North 435 501 33,000  Level Boston Center
05:14PM 42.1872 -73.8606 13° North 435 501 33,000 -240 Level Boston Center
05:15PM 42.3044 -73.8239 13° North 429 494 32,600 -900 Descending Boston Center
05:16PM 42.4194 -73.7928 11° North 429 494 31,300 -840 Descending Boston Center
05:17PM 42.5325 -73.7586 13° North 424 488 31,000 -180 Descending Boston Center
05:18PM 42.6453 -73.7186 15° North 419 482 31,000  Level Boston Center
05:19PM 42.7644 -73.6872 11° North 419 482 31,000  Level Boston Center
05:20PM 42.8775 -73.6500 14° North 419 482 31,000  Level Boston Center
05:21PM 42.9903 -73.6153 13° North 413 475 31,000 -300 Level Boston Center
05:22PM 43.1178 -73.5778 12° North 413 475 30,400 -1,200 Descending Boston Center
05:23PM 43.2183 -73.5428 14° North 413 475 28,700 -1,860 Descending Boston Center
05:24PM 43.3247 -73.5131 11° North 413 475 26,700 -2,100 Descending Boston Center
05:25PM 43.4314 -73.4808 12° North 399 459 24,600 -2,220 Descending Boston Center
05:26PM 43.5317 -73.4481 13° North 383 441 22,300 -2,340 Descending Boston Center
05:27PM 43.6300 -73.4183 12° North 366 421 20,000 -2,400 Descending Boston Center
05:28PM 43.7322 -73.3883 12° North 349 402 17,500 -2,400 Descending Boston Center
05:29PM 43.8222 -73.3608 12° North 336 387 15,200 -2,340 Descending Boston Center
05:30PM 43.9100 -73.3333 13° North 324 373 12,900 -2,100 Descending Boston Center
05:31PM 43.9914 -73.2942 19° North 314 361 10,600 -2,280 Descending Boston Center
05:32PM 44.0833 -73.2581 16° North 293 337 8,000 -2,460 Descending Boston Center
05:33PM 44.1464 -73.2067 30° Northeast 266 306 5,700 -1,500 Descending Boston Center
05:34PM 44.1925 -73.1581 37° Northeast 242 278 5,000 -480 Descending Boston Center
05:35PM 44.2364 -73.1122 37° Northeast 204 235 4,800 -480 Descending Boston Center
05:36PM 44.2783 -73.0694 36° Northeast 186 214 4,100 -600 Descending Boston Center
05:37PM 44.3264 -73.0611 North 172 198 3,600 -780 Descending Boston Center
05:38PM 44.3783 -73.0761 348° North 178 205 2,600 -1,080 Descending Boston Center
05:39PM 44.4281 -73.1028 339° North 184 212 1,500 -1,020 Descending Boston Center
05:40PM 44.4592 -73.1381 321° Northwest 155 178 600 -600 Descending Boston Center
05:41PM 44.4778 -73.1586 322° Northwest 134 154 400 -120 Descending Boston Center
05:42PM 44.4758 -73.1586 180° South 55 63 400  Level Boston Center
05:44PM 44.4667 -73.1500 10° North  Level FlightAware Approximate
05:51PM 44.4719 -73.1533 10° North  Level Estimated